Lafox, Illinois
Current Conditions -  °F | °C
As of 5:52 AM on Sunday 25 Jan 2015 (Local Time) from KDPA Reporting Station
Haze Haze  
Wind Chill: 22°   Ceiling: 500
Heat Index: 33°   Visibility: 4mi
Dew Point: 31°   Wind: 18mph
Humidity: 92%   Direction: 40°NE
Pressure: 29.69"   Gusts: NA
Location:  41.89°N, 88.41°W
Report Text: KDPA 251152Z 04016KT 4SM BR OVC005 01/M01 A2969 RMK AO2 SLP061 T00061006 10011 21006 53007
Loading
Personal Weather Stations






























Interactive Weather Map New forecast layout! Learn more

10-Day Weather Forecast

Advertisements
Track Severe Weather on mobile